Time;durP1;ratioP1;P1;durP2;ratioP2;P2;SDS_P1;SDS_P2;PMS_P1;PMS_P2;Temp;Humidity;BMP_temperature;BMP_pressure;BME280_temperature;BME280_humidity;BME280_pressure;Samples;Min_cycle;Max_cycle;Signal;HPM_P1;HPM_P2
2023/09/18 00:00:25;;;;;;;;;6.00;4.75;;;;;21.15;76.85;100259.41;5036146;28;45434;-39
2023/09/18 00:02:50;;;;;;;;;5.50;4.00;;;;;21.14;76.67;100274.00;5036096;28;45299;-40
2023/09/18 00:05:15;;;;;;;;;4.00;3.50;;;;;20.99;77.13;100263.59;5035919;28;45950;-47
2023/09/18 00:07:44;;;;;;;;;4.00;2.25;;;;;20.93;76.94;100259.06;5036197;28;45363;-40
2023/09/18 00:10:13;;;;;;;;;4.60;3.20;;;;;20.96;76.64;100272.16;5036151;28;45422;-43
2023/09/18 00:12:39;;;;;;;;;3.00;3.00;;;;;20.90;77.23;100263.06;5035922;28;45382;-41
2023/09/18 00:15:05;;;;;;;;;2.50;2.50;;;;;20.86;77.33;100261.06;5036340;28;45428;-38
2023/09/18 00:17:31;;;;;;;;;4.00;3.50;;;;;20.82;77.09;100267.97;5035491;28;48135;-40
2023/09/18 00:19:56;;;;;;;;;3.00;1.75;;;;;20.77;77.70;100259.69;5036032;28;45340;-41
2023/09/18 00:22:21;;;;;;;;;4.00;3.00;;;;;20.74;77.25;100246.63;5035949;28;45493;-40
2023/09/18 00:24:47;;;;;;;;;4.00;4.00;;;;;20.77;76.82;100260.50;5035978;28;45391;-46
2023/09/18 00:27:13;;;;;;;;;3.50;3.50;;;;;20.68;76.93;100251.88;5035731;28;45429;-38
2023/09/18 00:29:39;;;;;;;;;4.25;3.00;;;;;20.70;77.19;100261.66;5035427;28;45582;-41
2023/09/18 00:32:06;;;;;;;;;5.25;3.50;;;;;20.65;77.81;100271.25;5035859;28;45284;-40
2023/09/18 00:34:34;;;;;;;;;5.00;3.00;;;;;20.61;75.83;100277.34;5035697;28;45500;-40
2023/09/18 00:36:59;;;;;;;;;4.00;2.00;;;;;20.56;77.15;100269.91;5035444;28;46287;-40
2023/09/18 00:39:26;;;;;;;;;1.75;1.75;;;;;20.49;76.83;100271.84;5035469;28;45382;-41
2023/09/18 00:41:53;;;;;;;;;2.00;1.00;;;;;20.42;76.55;100265.63;5033296;28;45240;-40
2023/09/18 00:44:20;;;;;;;;;1.25;1.00;;;;;20.43;76.66;100269.97;5035942;28;45673;-40
2023/09/18 00:46:46;;;;;;;;;2.00;2.00;;;;;20.31;76.41;100253.69;5035260;28;46379;-42
2023/09/18 00:49:12;;;;;;;;;1.80;1.80;;;;;20.40;76.88;100271.28;5035446;28;45338;-43
2023/09/18 00:51:38;;;;;;;;;2.00;1.50;;;;;20.42;76.75;100268.34;5035857;28;45421;-40
2023/09/18 00:54:03;;;;;;;;;2.50;2.50;;;;;20.42;77.07;100269.16;5035785;28;45256;-51
2023/09/18 00:56:29;;;;;;;;;2.50;2.50;;;;;20.35;76.18;100245.94;5035445;28;47217;-50
2023/09/18 00:58:54;;;;;;;;;3.75;1.75;;;;;20.46;76.00;100263.31;5035135;28;45425;-40
2023/09/18 01:01:23;;;;;;;;;4.00;2.75;;;;;20.46;76.41;100277.66;5035537;28;45404;-40
2023/09/18 01:03:51;;;;;;;;;2.75;2.00;;;;;20.47;76.13;100273.06;5034996;28;45527;-48
2023/09/18 01:06:18;;;;;;;;;4.25;3.00;;;;;20.47;76.31;100281.16;5035010;28;46217;-40
2023/09/18 01:08:43;;;;;;;;;3.80;2.00;;;;;20.47;75.29;100286.56;5034421;28;45410;-42
2023/09/18 01:11:27;;;;;;;;;3.50;3.50;;;;;20.45;75.70;100292.22;5038842;28;45244;-48
2023/09/18 01:14:03;;;;;;;;;1.25;1.25;;;;;20.44;75.35;100290.56;5038572;28;45291;-48
2023/09/18 01:16:43;;;;;;;;;3.00;1.00;;;;;20.39;75.44;100280.44;5038294;28;45429;-43
2023/09/18 01:19:09;;;;;;;;;3.00;2.00;;;;;20.39;75.51;100277.72;5038514;28;45458;-40
2023/09/18 01:21:35;;;;;;;;;1.00;1.00;;;;;20.37;75.61;100279.00;5038593;28;45279;-40
2023/09/18 01:24:00;;;;;;;;;1.00;1.00;;;;;20.33;75.23;100272.38;5038925;28;45321;-39
2023/09/18 01:26:25;;;;;;;;;3.75;1.00;;;;;20.34;75.74;100282.13;5038241;28;46440;-38
2023/09/18 01:28:51;;;;;;;;;1.50;1.50;;;;;20.33;75.86;100275.06;5038233;28;45425;-40
2023/09/18 01:31:17;;;;;;;;;1.75;1.00;;;;;20.31;75.37;100269.06;5038334;28;45150;-38
2023/09/18 01:33:47;;;;;;;;;3.75;1.00;;;;;20.30;75.51;100272.81;5038931;28;45334;-39
2023/09/18 01:36:14;;;;;;;;;2.50;2.00;;;;;20.26;75.47;100253.50;5037952;28;46023;-42
2023/09/18 01:38:40;;;;;;;;;3.20;1.20;;;;;20.36;75.98;100269.25;5038382;28;45374;-39
2023/09/18 01:41:06;;;;;;;;;1.20;1.00;;;;;20.20;75.51;100254.41;5038448;28;45535;-37
2023/09/18 01:43:32;;;;;;;;;1.75;1.75;;;;;20.33;75.66;100286.72;5038372;28;45346;-40
2023/09/18 01:45:57;;;;;;;;;4.00;2.75;;;;;20.22;75.50;100251.47;5037381;28;46099;-41
2023/09/18 01:48:23;;;;;;;;;3.00;1.50;;;;;20.33;75.21;100264.28;5037872;28;45335;-41
2023/09/18 01:50:48;;;;;;;;;3.00;2.25;;;;;20.26;75.83;100261.63;5038032;28;45277;-41
2023/09/18 01:53:13;;;;;;;;;1.50;1.50;;;;;20.24;75.25;100263.72;5038666;28;45474;-38
2023/09/18 01:55:38;;;;;;;;;3.00;2.50;;;;;20.21;75.57;100266.03;5037988;28;46192;-38
2023/09/18 01:58:04;;;;;;;;;1.00;1.00;;;;;20.21;75.65;100274.16;5038050;28;45278;-40
2023/09/18 02:00:29;;;;;;;;;1.00;1.00;;;;;20.19;76.18;100263.56;5038016;28;45381;-42
2023/09/18 02:02:54;;;;;;;;;2.25;2.25;;;;;20.18;76.30;100265.44;5038005;28;45382;-40
2023/09/18 02:05:20;;;;;;;;;1.75;1.25;;;;;20.16;75.90;100258.59;5037655;28;49031;-38
2023/09/18 02:07:45;;;;;;;;;2.00;2.00;;;;;20.09;76.13;100261.34;5037681;28;45340;-38
2023/09/18 02:10:12;;;;;;;;;1.00;1.00;;;;;20.16;76.29;100267.53;5036645;28;45408;-40
2023/09/18 02:12:38;;;;;;;;;1.00;1.00;;;;;20.15;75.96;100274.00;5037757;28;45302;-38
2023/09/18 02:15:06;;;;;;;;;1.75;1.00;;;;;20.22;75.82;100289.28;5037544;28;47344;-39
2023/09/18 02:17:31;;;;;;;;;4.00;2.00;;;;;20.23;76.39;100286.41;5037435;28;45482;-40
2023/09/18 02:19:57;;;;;;;;;3.00;2.75;;;;;20.19;75.46;100277.06;5037496;28;45377;-43
2023/09/18 02:22:22;;;;;;;;;3.00;1.00;;;;;20.14;75.00;100288.53;5037666;28;45364;-41
2023/09/18 02:24:47;;;;;;;;;1.00;1.00;;;;;20.08;75.65;100289.41;5037351;28;45907;-39
2023/09/18 02:27:13;;;;;;;;;4.50;2.00;;;;;20.01;76.52;100293.19;5037689;28;45341;-40
2023/09/18 02:29:38;;;;;;;;;3.25;1.25;;;;;19.94;76.75;100290.56;5036434;28;45268;-41
2023/09/18 02:32:03;;;;;;;;;1.00;1.00;;;;;19.94;76.52;100287.88;5038145;28;45319;-42
2023/09/18 02:34:29;;;;;;;;;1.75;1.75;;;;;19.92;76.65;100287.25;5037609;28;46046;-40
2023/09/18 02:36:54;;;;;;;;;1.00;1.00;;;;;19.91;76.81;100291.00;5036376;28;45463;-40
2023/09/18 02:39:20;;;;;;;;;4.00;2.75;;;;;19.92;77.19;100290.78;5037871;28;45465;-44
2023/09/18 02:41:45;;;;;;;;;2.25;2.00;;;;;19.93;77.39;100294.28;5038331;28;45339;-40
2023/09/18 02:44:10;;;;;;;;;2.75;2.75;;;;;19.96;77.60;100298.44;5037328;28;46052;-41
2023/09/18 02:46:37;;;;;;;;;2.50;2.50;;;;;19.98;77.66;100302.59;5036308;28;45519;-39
2023/09/18 02:49:03;;;;;;;;;3.00;3.00;;;;;19.91;77.30;100288.31;5037278;28;45420;-40
2023/09/18 02:51:31;;;;;;;;;2.50;2.00;;;;;19.99;77.02;100296.13;5037330;28;45441;-39
2023/09/18 02:53:57;;;;;;;;;2.50;2.50;;;;;20.00;76.76;100303.19;5037177;28;47093;-39
2023/09/18 02:56:22;;;;;;;;;3.00;3.00;;;;;20.01;76.99;100298.59;5037131;28;45247;-38
2023/09/18 02:58:47;;;;;;;;;5.00;2.25;;;;;20.04;77.46;100296.28;5037038;28;47086;-38
2023/09/18 03:01:12;;;;;;;;;3.00;3.00;;;;;20.08;77.46;100294.81;5037308;28;45287;-39
2023/09/18 03:03:38;;;;;;;;;4.00;2.50;;;;;20.09;76.69;100287.53;5036908;28;46054;-39
2023/09/18 03:06:04;;;;;;;;;3.00;3.00;;;;;20.09;76.87;100279.44;5037079;28;45396;-40
2023/09/18 03:08:30;;;;;;;;;2.40;2.20;;;;;19.97;76.86;100265.81;5035886;28;45426;-39
2023/09/18 03:10:56;;;;;;;;;5.00;3.00;;;;;20.07;76.82;100278.84;5037145;28;45495;-40
2023/09/18 03:13:22;;;;;;;;;5.00;2.00;;;;;20.04;76.93;100272.00;5036396;28;46004;-40
2023/09/18 03:15:47;;;;;;;;;2.00;2.00;;;;;20.06;76.66;100266.41;5036656;28;45408;-40
2023/09/18 03:18:14;;;;;;;;;3.00;1.75;;;;;20.01;77.04;100258.94;5036729;28;45447;-40
2023/09/18 03:20:39;;;;;;;;;2.75;1.75;;;;;20.00;76.58;100262.69;5036885;28;45604;-40
2023/09/18 03:23:04;;;;;;;;;3.25;2.75;;;;;19.96;76.98;100272.25;5036599;28;46152;-40
2023/09/18 03:25:30;;;;;;;;;4.25;4.25;;;;;19.96;75.54;100271.44;5036360;28;45331;-39
2023/09/18 03:27:57;;;;;;;;;9.75;3.00;;;;;19.89;77.16;100266.13;5036498;28;45334;-40
2023/09/18 03:30:23;;;;;;;;;2.25;2.25;;;;;19.86;76.84;100263.84;5036800;28;45354;-39
2023/09/18 03:32:50;;;;;;;;;3.25;3.00;;;;;19.84;77.39;100263.22;5035312;28;46446;-39
2023/09/18 03:35:19;;;;;;;;;2.00;2.00;;;;;19.81;76.88;100267.19;5035592;28;45416;-39
2023/09/18 03:37:48;;;;;;;;;2.00;2.00;;;;;19.69;77.59;100255.44;5036735;28;45401;-41
2023/09/18 03:40:15;;;;;;;;;3.75;3.00;;;;;19.75;77.06;100259.13;5036711;28;45376;-40
2023/09/18 03:42:40;;;;;;;;;5.50;2.75;;;;;19.81;77.81;100259.09;5036150;28;46392;-40
2023/09/18 03:45:07;;;;;;;;;4.00;2.75;;;;;19.85;76.75;100262.19;5036107;28;45488;-40
2023/09/18 03:47:35;;;;;;;;;2.00;2.00;;;;;19.86;77.19;100261.16;5036171;28;45404;-42
2023/09/18 03:50:04;;;;;;;;;3.75;3.75;;;;;19.90;76.75;100260.47;5036399;28;45421;-41
2023/09/18 03:52:29;;;;;;;;;3.50;2.75;;;;;19.89;77.02;100258.00;5036098;28;46441;-40
2023/09/18 03:54:55;;;;;;;;;2.50;1.75;;;;;19.93;76.89;100261.91;5035764;28;47261;-40
2023/09/18 03:57:20;;;;;;;;;4.75;4.00;;;;;19.94;76.75;100247.38;5036311;28;45540;-40
2023/09/18 03:59:45;;;;;;;;;3.50;3.50;;;;;19.92;76.62;100250.28;5035960;28;45410;-41
2023/09/18 04:02:11;;;;;;;;;5.50;3.75;;;;;19.99;76.79;100252.13;5036149;28;46081;-40
2023/09/18 04:04:36;;;;;;;;;5.25;4.75;;;;;20.01;76.91;100255.41;5036002;28;45436;-39
2023/09/18 04:07:06;;;;;;;;;4.00;4.00;;;;;20.00;76.86;100249.19;5035929;28;45358;-39
2023/09/18 04:09:32;;;;;;;;;2.50;2.50;;;;;20.00;76.71;100245.66;5036327;28;45410;-39
2023/09/18 04:11:57;;;;;;;;;2.75;2.75;;;;;20.03;76.82;100245.22;5035780;28;47058;-40
2023/09/18 04:14:24;;;;;;;;;3.00;3.00;;;;;20.02;76.46;100249.81;5035976;28;45422;-39
2023/09/18 04:16:49;;;;;;;;;4.50;3.25;;;;;20.05;75.87;100256.63;5035975;28;45437;-41
2023/09/18 04:19:15;;;;;;;;;5.25;4.75;;;;;20.01;76.14;100264.31;5036173;28;45497;-41
2023/09/18 04:21:40;;;;;;;;;6.75;4.50;;;;;20.01;76.85;100253.53;5035726;28;45998;-41
2023/09/18 04:24:06;;;;;;;;;2.25;2.25;;;;;20.06;76.70;100261.81;5035738;28;45370;-41
2023/09/18 04:26:32;;;;;;;;;3.00;3.00;;;;;20.06;76.34;100255.59;5035231;28;45338;-40
2023/09/18 04:28:58;;;;;;;;;3.00;3.00;;;;;20.02;76.78;100241.72;5036111;28;45509;-41
2023/09/18 04:31:24;;;;;;;;;4.75;3.75;;;;;19.92;77.32;100233.25;5035665;28;46308;-39
2023/09/18 04:33:49;;;;;;;;;3.00;3.00;;;;;20.09;76.79;100250.56;5035622;28;45366;-40
2023/09/18 04:36:15;;;;;;;;;5.00;3.00;;;;;20.09;76.37;100247.84;5035613;28;45355;-40
2023/09/18 04:38:40;;;;;;;;;2.50;2.50;;;;;20.09;77.02;100249.72;5035336;28;45597;-39
2023/09/18 04:41:07;;;;;;;;;4.00;2.00;;;;;20.10;76.58;100244.13;5035412;28;47032;-40
2023/09/18 04:43:34;;;;;;;;;4.00;4.00;;;;;20.11;76.72;100253.88;5035321;28;45413;-39
2023/09/18 04:46:00;;;;;;;;;6.50;3.50;;;;;20.09;76.81;100247.84;5039137;28;45388;-40
2023/09/18 04:48:25;;;;;;;;;4.00;3.00;;;;;20.11;76.82;100239.56;5039205;28;45460;-40
2023/09/18 04:50:50;;;;;;;;;2.75;2.75;;;;;20.12;76.44;100242.00;5038671;28;47872;-40
2023/09/18 04:53:16;;;;;;;;;4.75;4.75;;;;;20.12;76.58;100250.13;5038824;28;45387;-39
2023/09/18 04:55:41;;;;;;;;;5.25;4.00;;;;;20.07;76.83;100257.25;5039147;28;45368;-40
2023/09/18 04:58:06;;;;;;;;;4.25;3.50;;;;;20.08;76.42;100269.69;5039186;28;45335;-42
2023/09/18 05:00:33;;;;;;;;;4.50;3.00;;;;;20.10;76.66;100259.47;5037690;28;46725;-38
2023/09/18 05:03:01;;;;;;;;;3.00;3.00;;;;;20.12;76.56;100255.53;5038682;28;45472;-46
2023/09/18 05:05:27;;;;;;;;;4.00;3.00;;;;;20.13;76.49;100259.88;5039027;28;45390;-41
2023/09/18 05:07:52;;;;;;;;;4.25;4.25;;;;;20.09;76.31;100247.84;5038826;28;45388;-38
2023/09/18 05:10:18;;;;;;;;;3.00;3.00;;;;;20.15;76.20;100255.09;5038486;28;45459;-40
2023/09/18 05:12:44;;;;;;;;;2.75;2.75;;;;;20.17;76.39;100258.38;5038633;28;45255;-44
2023/09/18 05:15:10;;;;;;;;;8.75;7.25;;;;;20.14;75.86;100263.38;5038495;28;45445;-39
2023/09/18 05:17:51;;;;;;;;;7.00;5.75;;;;;20.11;76.12;100261.16;5037976;28;45387;-39
2023/09/18 05:20:17;;;;;;;;;5.50;5.50;;;;;20.06;75.71;100245.63;5036884;28;46218;-40
2023/09/18 05:22:44;;;;;;;;;7.50;6.00;;;;;20.03;76.27;100251.44;5038344;28;45280;-40
2023/09/18 05:25:10;;;;;;;;;4.00;3.75;;;;;19.98;76.55;100236.97;5038796;28;45472;-40
2023/09/18 05:27:43;;;;;;;;;5.00;3.75;;;;;20.05;75.35;100249.34;5038579;28;45470;-41
2023/09/18 05:30:15;;;;;;;;;3.75;3.00;;;;;20.05;76.11;100248.53;5038582;28;46316;-40
2023/09/18 05:32:41;;;;;;;;;6.75;5.50;;;;;20.03;76.23;100256.03;5038395;28;45379;-40
2023/09/18 05:35:09;;;;;;;;;5.00;5.00;;;;;20.09;76.20;100264.06;5038197;28;45391;-39
2023/09/18 05:37:35;;;;;;;;;5.25;5.00;;;;;20.12;75.94;100268.19;5038386;28;45434;-41
2023/09/18 05:40:00;;;;;;;;;5.75;4.00;;;;;20.17;76.19;100271.88;5038440;28;45286;-41
2023/09/18 05:42:25;;;;;;;;;6.50;5.00;;;;;20.19;76.12;100260.88;5037218;28;45367;-39
2023/09/18 05:44:51;;;;;;;;;4.75;4.75;;;;;20.20;76.31;100257.13;5038554;28;45445;-41
2023/09/18 05:47:16;;;;;;;;;5.50;5.50;;;;;20.18;75.01;100260.06;5038493;28;45453;-40
2023/09/18 05:49:42;;;;;;;;;6.75;6.50;;;;;20.18;75.71;100260.06;5038414;28;45996;-44
2023/09/18 05:52:07;;;;;;;;;5.00;5.00;;;;;20.18;75.60;100251.94;5038068;28;45395;-40
2023/09/18 05:54:32;;;;;;;;;5.50;4.75;;;;;20.15;75.28;100260.47;5037790;28;45599;-43
2023/09/18 05:56:58;;;;;;;;;5.50;5.50;;;;;20.13;76.23;100256.34;5038346;28;45464;-40
2023/09/18 05:59:23;;;;;;;;;6.25;4.50;;;;;20.18;76.12;100254.66;5038142;28;45531;-41
2023/09/18 06:01:49;;;;;;;;;7.75;6.50;;;;;20.16;75.73;100264.00;5037673;28;45346;-40
2023/09/18 06:04:14;;;;;;;;;6.00;5.25;;;;;20.18;75.46;100281.66;5038085;28;45420;-39
2023/09/18 06:06:40;;;;;;;;;5.75;5.50;;;;;20.23;76.04;100285.56;5038198;28;45301;-40
2023/09/18 06:09:07;;;;;;;;;7.25;5.50;;;;;20.23;75.63;100285.56;5037775;28;46910;-41
2023/09/18 06:11:32;;;;;;;;;8.25;7.50;;;;;20.25;75.98;100284.28;5037895;28;45378;-41
2023/09/18 06:13:57;;;;;;;;;4.25;1.25;;;;;20.28;75.62;100281.16;5037718;28;45340;-40
2023/09/18 06:16:23;;;;;;;;;8.00;6.50;;;;;20.29;75.56;100292.78;5037977;28;45321;-38
2023/09/18 06:18:48;;;;;;;;;8.50;5.25;;;;;20.27;75.54;100289.44;5037608;28;45928;-40
2023/09/18 06:21:13;;;;;;;;;6.50;4.75;;;;;20.29;75.50;100287.38;5037798;28;45368;-40
2023/09/18 06:23:39;;;;;;;;;6.75;6.50;;;;;20.33;75.90;100294.00;5037801;28;45842;-40
2023/09/18 06:26:04;;;;;;;;;5.25;5.25;;;;;20.33;75.39;100294.00;5036834;28;45508;-40
2023/09/18 06:28:29;;;;;;;;;8.25;7.00;;;;;20.36;75.56;100304.34;5037490;28;45344;-40
2023/09/18 06:30:55;;;;;;;;;6.25;6.25;;;;;20.33;75.91;100302.91;5037463;28;45279;-40
2023/09/18 06:33:20;;;;;;;;;7.25;5.50;;;;;20.41;75.70;100318.03;5036426;28;45425;-40
2023/09/18 06:35:46;;;;;;;;;6.50;6.50;;;;;20.43;75.23;100316.72;5037539;28;45310;-39
2023/09/18 06:38:12;;;;;;;;;10.00;7.25;;;;;20.45;75.13;100319.22;5036796;28;46104;-41
2023/09/18 06:40:38;;;;;;;;;7.25;5.50;;;;;20.44;75.44;100313.00;5036052;28;45434;-41
2023/09/18 06:43:05;;;;;;;;;8.75;8.25;;;;;20.44;75.11;100295.97;5037501;28;45306;-41
2023/09/18 06:45:30;;;;;;;;;12.25;6.00;;;;;20.40;75.13;100287.47;5037735;28;45381;-40
2023/09/18 06:47:56;;;;;;;;;10.25;8.50;;;;;20.41;75.41;100286.44;5037202;28;46970;-41
2023/09/18 06:50:21;;;;;;;;;9.00;6.00;;;;;20.48;75.42;100297.22;5037189;28;50683;-42
2023/09/18 06:52:47;;;;;;;;;12.25;8.50;;;;;20.50;75.55;100300.50;5036826;28;45699;-40
2023/09/18 06:55:12;;;;;;;;;7.00;7.00;;;;;20.53;74.49;100299.25;5036157;28;45357;-40
2023/09/18 06:57:37;;;;;;;;;8.00;6.25;;;;;20.55;74.59;100289.03;5037157;28;46078;-40
2023/09/18 07:00:05;;;;;;;;;11.25;9.00;;;;;20.59;74.88;100298.34;5037112;28;45326;-46
2023/09/18 07:02:30;;;;;;;;;9.00;7.50;;;;;20.56;74.64;100278.00;5037185;28;45450;-40
2023/09/18 07:04:55;;;;;;;;;10.00;8.25;;;;;20.74;74.37;100296.13;5037458;28;45436;-39
2023/09/18 07:07:25;;;;;;;;;8.00;7.25;;;;;20.88;74.02;100299.50;5035676;28;46834;-39
2023/09/18 07:09:51;;;;;;;;;6.60;5.80;;;;;20.98;73.47;100307.88;5036856;28;45333;-40
2023/09/18 07:12:19;;;;;;;;;9.25;8.00;;;;;21.05;73.62;100313.22;5037080;28;45381;-41
2023/09/18 07:14:45;;;;;;;;;9.00;6.75;;;;;21.04;72.91;100314.28;5037075;28;45474;-40
2023/09/18 07:17:10;;;;;;;;;10.00;8.00;;;;;21.02;73.37;100319.91;5036534;28;46328;-40
2023/09/18 07:19:36;;;;;;;;;9.00;8.25;;;;;20.98;73.15;100321.41;5036825;28;45330;-39
2023/09/18 07:22:03;;;;;;;;;8.50;7.00;;;;;21.04;73.64;100322.41;5036850;28;45459;-40
2023/09/18 07:24:28;;;;;;;;;11.50;9.00;;;;;21.09;73.14;100330.66;5036988;28;45436;-38
2023/09/18 07:26:54;;;;;;;;;6.50;6.25;;;;;21.13;72.74;100327.28;5036462;28;46310;-42
2023/09/18 07:29:20;;;;;;;;;7.60;7.60;;;;;21.14;72.60;100328.91;5036746;28;45439;-39
2023/09/18 07:31:46;;;;;;;;;9.50;9.50;;;;;21.18;72.33;100337.41;5035319;28;45562;-42
2023/09/18 07:34:13;;;;;;;;;8.50;6.25;;;;;21.21;72.46;100338.84;5037052;28;45369;-40
2023/09/18 07:36:40;;;;;;;;;7.75;7.75;;;;;21.27;72.29;100343.34;5036016;28;46481;-41
2023/09/18 07:39:06;;;;;;;;;9.00;8.50;;;;;21.20;71.91;100323.69;5036480;28;45807;-42
2023/09/18 07:41:34;;;;;;;;;7.50;7.25;;;;;21.30;71.61;100321.25;5036507;28;49490;-39
2023/09/18 07:44:00;;;;;;;;;9.25;8.25;;;;;21.42;71.67;100333.00;5035338;28;45423;-41
2023/09/18 07:46:25;;;;;;;;;7.50;7.50;;;;;21.45;71.10;100316.31;5036096;28;45413;-42
2023/09/18 07:48:51;;;;;;;;;9.75;8.25;;;;;21.63;70.44;100329.78;5036550;28;45423;-41
2023/09/18 07:51:16;;;;;;;;;9.50;9.25;;;;;21.64;70.83;100334.16;5036365;28;45525;-39
2023/09/18 07:53:42;;;;;;;;;9.75;7.00;;;;;21.62;70.46;100328.16;5036686;28;45230;-40
2023/09/18 07:56:08;;;;;;;;;9.00;7.00;;;;;21.83;69.74;100331.41;5036155;28;46187;-40
2023/09/18 07:58:38;;;;;;;;;8.25;8.00;;;;;21.91;69.35;100312.09;5036455;28;45273;-40
2023/09/18 08:01:10;;;;;;;;;11.25;10.00;;;;;22.34;68.99;100346.28;5036291;28;45401;-41
2023/09/18 08:03:35;;;;;;;;;11.25;7.75;;;;;22.44;67.86;100332.13;5036245;28;45363;-41
2023/09/18 08:06:01;;;;;;;;;8.25;8.00;;;;;22.45;67.92;100331.06;5035894;28;46187;-40
2023/09/18 08:08:26;;;;;;;;;7.00;7.00;;;;;22.49;67.37;100335.78;5036200;28;45417;-45
2023/09/18 08:10:52;;;;;;;;;7.50;7.50;;;;;22.42;67.13;100327.78;5036263;28;45395;-40
2023/09/18 08:13:19;;;;;;;;;10.25;8.00;;;;;22.54;67.23;100341.31;5036382;28;45400;-40
2023/09/18 08:15:45;;;;;;;;;10.50;6.75;;;;;22.72;66.68;100345.00;5035910;28;46427;-42
2023/09/18 08:18:12;;;;;;;;;7.25;5.00;;;;;22.72;66.33;100326.00;5035917;28;45359;-41
2023/09/18 08:20:44;;;;;;;;;9.40;7.20;;;;;22.78;65.91;100335.91;5036325;28;45302;-41
2023/09/18 08:23:10;;;;;;;;;7.75;6.25;;;;;22.66;65.53;100338.59;5036362;28;45329;-40
2023/09/18 08:25:36;;;;;;;;;9.60;5.20;;;;;22.73;65.97;100336.59;5035904;28;45409;-41
2023/09/18 08:28:01;;;;;;;;;9.00;6.25;;;;;22.64;64.78;100332.59;5035813;28;45402;-42
2023/09/18 08:30:27;;;;;;;;;5.25;4.50;;;;;23.12;64.34;100336.94;5035824;28;45456;-44
2023/09/18 08:32:52;;;;;;;;;5.50;5.25;;;;;23.68;62.15;100320.97;5036288;28;45365;-41
2023/09/18 08:35:17;;;;;;;;;5.00;5.00;;;;;23.79;63.14;100325.53;5035758;28;45959;-42
2023/09/18 08:37:43;;;;;;;;;6.25;6.25;;;;;24.85;59.56;100331.88;5035871;28;45413;-42
2023/09/18 08:40:13;;;;;;;;;6.00;5.00;;;;;26.41;55.85;100334.94;5036116;28;45366;-39
2023/09/18 08:42:48;;;;;;;;;5.20;5.20;;;;;26.71;54.07;100339.81;5035763;28;45367;-42
2023/09/18 08:45:31;;;;;;;;;6.20;5.20;;;;;26.51;53.55;100340.53;5035100;28;45376;-40
2023/09/18 08:47:57;;;;;;;;;3.80;3.00;;;;;26.98;51.94;100339.72;5034085;28;45460;-44
2023/09/18 08:50:23;;;;;;;;;5.50;5.00;;;;;27.17;53.16;100345.53;5036027;28;45274;-40
2023/09/18 08:52:49;;;;;;;;;4.80;4.80;;;;;27.69;50.79;100343.81;5035875;28;45391;-41
2023/09/18 08:55:16;;;;;;;;;3.60;3.60;;;;;27.39;51.48;100336.34;5035880;28;46498;-42
2023/09/18 08:57:42;;;;;;;;;5.20;5.00;;;;;26.80;51.94;100343.72;5034985;28;45322;-47
2023/09/18 09:00:11;;;;;;;;;5.80;4.60;;;;;26.37;53.22;100337.38;5035096;28;45263;-42
2023/09/18 09:02:37;;;;;;;;;5.80;4.00;;;;;26.35;52.99;100345.00;5035889;28;45405;-44
2023/09/18 09:05:03;;;;;;;;;5.75;5.25;;;;;26.08;53.80;100342.34;5035339;28;45324;-40
2023/09/18 09:07:31;;;;;;;;;7.75;7.75;;;;;25.99;54.18;100341.13;5035558;28;45400;-46
2023/09/18 09:09:56;;;;;;;;;6.00;5.00;;;;;26.24;53.38;100337.00;5035446;28;45315;-49
2023/09/18 09:13:06;;;;;;;;;6.75;4.50;;;;;26.34;54.50;100327.00;5035659;28;45384;-41
2023/09/18 09:15:45;;;;;;;;;6.40;5.00;;;;;26.38;53.25;100317.22;5032938;28;46642;-48
2023/09/18 09:18:11;;;;;;;;;6.00;6.00;;;;;26.56;52.86;100321.44;5035187;28;45437;-40
2023/09/18 09:20:36;;;;;;;;;5.25;4.75;;;;;26.64;53.23;100314.69;5035603;28;45339;-39
2023/09/18 09:23:06;;;;;;;;;4.75;4.75;;;;;26.73;53.29;100326.75;5034424;28;45555;-39
2023/09/18 09:25:33;;;;;;;;;8.40;6.00;;;;;26.80;52.25;100324.59;5035187;28;46129;-40
2023/09/18 09:28:04;;;;;;;;;7.20;3.80;;;;;26.82;52.29;100330.59;5035115;28;45404;-40
2023/09/18 09:30:30;;;;;;;;;8.60;7.00;;;;;26.90;52.90;100334.75;5036418;28;45408;-42
2023/09/18 09:32:59;;;;;;;;;6.20;5.00;;;;;27.46;51.49;100326.00;5038846;28;45433;-42
2023/09/18 09:35:27;;;;;;;;;6.00;4.60;;;;;27.86;51.02;100314.38;5036909;28;47062;-42
2023/09/18 09:37:55;;;;;;;;;6.00;6.00;;;;;28.45;50.52;100341.19;5038555;28;45236;-44
2023/09/18 09:40:22;;;;;;;;;6.80;5.40;;;;;29.03;49.23;100338.06;5038612;28;45213;-43
2023/09/18 09:42:51;;;;;;;;;5.40;4.00;;;;;29.70;46.36;100322.97;5038740;28;45445;-41
2023/09/18 09:45:17;;;;;;;;;5.20;4.40;;;;;30.08;45.59;100337.78;5038478;28;46332;-41
2023/09/18 09:47:43;;;;;;;;;5.00;5.00;;;;;30.21;45.19;100343.75;5038194;28;45338;-42
2023/09/18 09:50:15;;;;;;;;;5.60;5.00;;;;;30.17;45.24;100342.69;5038531;28;45647;-43
2023/09/18 09:52:46;;;;;;;;;5.20;5.20;;;;;30.23;45.26;100339.63;5037272;28;45393;-42
2023/09/18 09:55:21;;;;;;;;;8.80;6.00;;;;;30.25;44.78;100336.56;5037202;28;46393;-39
2023/09/18 09:57:48;;;;;;;;;4.80;4.80;;;;;30.10;44.08;100347.66;5038384;28;45404;-41
2023/09/18 10:00:49;;;;;;;;;5.40;4.00;;;;;30.12;43.66;100345.44;5038304;28;45377;-39
2023/09/18 10:03:08;;;;;;;;;5.60;5.20;;;;;29.97;43.50;100349.13;5035199;28;45623;-41
2023/09/18 10:05:36;;;;;;;;;6.00;4.40;;;;;29.77;44.38;100336.38;5037864;28;47301;-40
2023/09/18 10:08:07;;;;;;;;;4.80;4.80;;;;;29.57;44.47;100346.34;5038172;28;45279;-40
2023/09/18 10:10:38;;;;;;;;;4.00;4.00;;;;;29.44;44.81;100351.59;5038257;28;45306;-40
2023/09/18 10:13:12;;;;;;;;;4.00;3.00;;;;;29.36;45.78;100363.16;5038214;28;45389;-40
2023/09/18 10:15:38;;;;;;;;;3.60;2.40;;;;;29.13;44.38;100357.22;5037814;28;46168;-40
2023/09/18 10:18:08;;;;;;;;;5.00;5.00;;;;;29.11;44.63;100351.19;5037823;28;45461;-40
2023/09/18 10:20:42;;;;;;;;;5.80;5.80;;;;;29.16;44.85;100353.09;5038174;28;45504;-40
2023/09/18 10:23:20;;;;;;;;;4.00;4.00;;;;;30.32;44.89;100334.34;5038286;28;45412;-41
2023/09/18 10:25:48;;;;;;;;;6.20;4.80;;;;;32.03;40.02;100337.22;5037751;28;46418;-41
2023/09/18 10:28:15;;;;;;;;;5.80;3.20;;;;;31.82;40.26;100346.06;5036391;28;45297;-42
2023/09/18 10:30:42;;;;;;;;;4.20;3.40;;;;;33.09;39.71;100335.63;5037766;28;45464;-42
2023/09/18 10:33:08;;;;;;;;;3.20;3.20;;;;;34.53;35.59;100327.63;5038329;28;45863;-43
2023/09/18 10:35:35;;;;;;;;;6.00;4.80;;;;;34.42;37.74;100346.38;5037434;28;45478;-41
2023/09/18 10:38:02;;;;;;;;;6.40;4.20;;;;;36.32;32.81;100329.41;5037688;28;45511;-43
2023/09/18 10:40:31;;;;;;;;;4.00;4.00;;;;;37.45;31.74;100335.31;5037623;28;45315;-43
2023/09/18 10:42:58;;;;;;;;;3.40;3.40;;;;;39.46;28.56;100347.88;5037576;28;45491;-38
2023/09/18 10:45:24;;;;;;;;;4.60;4.60;;;;;41.01;28.02;100337.84;5036852;28;45439;-43
2023/09/18 10:47:50;;;;;;;;;1.60;1.60;;;;;42.01;24.43;100346.44;5037150;28;45312;-42
2023/09/18 10:50:24;;;;;;;;;3.80;3.80;;;;;42.89;25.11;100361.63;5037554;28;45565;-42
2023/09/18 10:52:50;;;;;;;;;3.00;3.00;;;;;43.66;22.99;100327.59;5035826;28;45459;-42
2023/09/18 10:55:16;;;;;;;;;3.75;2.00;;;;;44.15;22.46;100337.78;5037499;28;46020;-41
2023/09/18 10:57:59;;;;;;;;;1.00;1.00;;;;;44.81;23.79;100344.44;5035958;28;45249;-42
2023/09/18 11:00:27;;;;;;;;;2.00;2.00;;;;;45.63;21.08;100340.56;5037301;28;45394;-41
2023/09/18 11:02:53;;;;;;;;;4.20;3.00;;;;;46.15;21.08;100332.72;5037478;28;45613;-41
2023/09/18 11:05:32;;;;;;;;;3.50;2.50;;;;;46.28;21.11;100348.84;5037072;28;46037;-41
2023/09/18 11:08:26;;;;;;;;;5.40;1.80;;;;;46.86;19.77;100346.03;5037029;28;45905;-40
2023/09/18 11:11:09;;;;;;;;;2.00;2.00;;;;;45.10;21.28;100344.69;5037132;28;45393;-38
2023/09/18 11:13:36;;;;;;;;;4.20;3.00;;;;;44.66;20.66;100353.13;5037257;28;45709;-39
2023/09/18 11:16:26;;;;;;;;;2.60;1.40;;;;;45.13;20.71;100352.31;5036855;28;45696;-39
2023/09/18 11:18:54;;;;;;;;;3.20;2.20;;;;;46.16;22.31;100340.75;5037214;28;45458;-37
2023/09/18 11:21:29;;;;;;;;;4.40;3.60;;;;;44.49;21.76;100352.56;5037038;28;45475;-42
2023/09/18 11:24:03;;;;;;;;;2.00;2.00;;;;;45.13;20.59;100332.66;5037206;28;45403;-40